Terminal Aerodrome Forecast
Issued by NWS

Home | Current Version | Previous Version | Text Only | Print | Product List | Glossary Off
Versions: 1 2 3 4 5 6 7 8 9 10 11 12 13 14 15 16 17 18 19 20

194
FTUS43 KMPX 171120
TAFAXN
TAF
KAXN 171120Z 1712/1812 26007KT P6SM BKN200
     FM171400 29008KT P6SM SCT200
     FM171800 30014G22KT P6SM SKC
     FM180000 29008KT P6SM SKC
     FM180600 VRB03KT P6SM BKN200
     FM181000 12007KT 6SM -SN SCT020 OVC040=

USA.gov is the U.S. government's official web portal to all federal, state and local government web resources and services.